sensor_id;sensor_type;location;lat;lon;timestamp;P1;durP1;ratioP1;P2;durP2;ratioP2
41141;SDS011;63666;52.284;20.890;2024-01-15T00:00:13;6.60;;;4.00;;
41141;SDS011;63666;52.284;20.890;2024-01-15T00:02:39;6.50;;;4.20;;
41141;SDS011;63666;52.284;20.890;2024-01-15T00:04:23;6.00;;;3.80;;
41141;SDS011;63666;52.284;20.890;2024-01-15T00:06:08;6.90;;;4.20;;
41141;SDS011;63666;52.284;20.890;2024-01-15T00:07:53;7.30;;;3.70;;
41141;SDS011;63666;52.284;20.890;2024-01-15T00:09:39;6.20;;;3.90;;
41141;SDS011;63666;52.284;20.890;2024-01-15T00:11:26;6.80;;;4.00;;
41141;SDS011;63666;52.284;20.890;2024-01-15T00:13:11;6.00;;;3.60;;
41141;SDS011;63666;52.284;20.890;2024-01-15T00:14:58;6.00;;;3.60;;
41141;SDS011;63666;52.284;20.890;2024-01-15T00:16:44;6.00;;;3.60;;
41141;SDS011;63666;52.284;20.890;2024-01-15T00:18:31;5.70;;;3.40;;
41141;SDS011;63666;52.284;20.890;2024-01-15T00:20:19;5.60;;;3.00;;
41141;SDS011;63666;52.284;20.890;2024-01-15T00:22:08;5.80;;;3.60;;
41141;SDS011;63666;52.284;20.890;2024-01-15T00:23:53;5.80;;;3.70;;
41141;SDS011;63666;52.284;20.890;2024-01-15T00:25:42;6.00;;;3.60;;
41141;SDS011;63666;52.284;20.890;2024-01-15T00:27:27;6.30;;;3.70;;
41141;SDS011;63666;52.284;20.890;2024-01-15T00:29:13;6.30;;;3.90;;
41141;SDS011;63666;52.284;20.890;2024-01-15T00:31:00;6.20;;;3.80;;
41141;SDS011;63666;52.284;20.890;2024-01-15T00:32:57;5.90;;;3.70;;
41141;SDS011;63666;52.284;20.890;2024-01-15T00:34:43;5.80;;;3.60;;
41141;SDS011;63666;52.284;20.890;2024-01-15T00:36:35;5.60;;;3.30;;
41141;SDS011;63666;52.284;20.890;2024-01-15T00:38:19;5.40;;;3.40;;
41141;SDS011;63666;52.284;20.890;2024-01-15T00:40:09;5.60;;;3.40;;
41141;SDS011;63666;52.284;20.890;2024-01-15T00:41:54;6.10;;;3.50;;
41141;SDS011;63666;52.284;20.890;2024-01-15T00:43:39;6.60;;;3.50;;
41141;SDS011;63666;52.284;20.890;2024-01-15T00:45:25;6.00;;;3.60;;
41141;SDS011;63666;52.284;20.890;2024-01-15T00:47:12;6.50;;;3.80;;
41141;SDS011;63666;52.284;20.890;2024-01-15T00:48:57;5.80;;;3.50;;
41141;SDS011;63666;52.284;20.890;2024-01-15T00:50:42;5.60;;;3.60;;
41141;SDS011;63666;52.284;20.890;2024-01-15T00:52:31;6.70;;;3.40;;
41141;SDS011;63666;52.284;20.890;2024-01-15T00:54:18;5.60;;;3.50;;
41141;SDS011;63666;52.284;20.890;2024-01-15T00:56:05;5.70;;;3.50;;
41141;SDS011;63666;52.284;20.890;2024-01-15T00:57:50;5.80;;;3.60;;
41141;SDS011;63666;52.284;20.890;2024-01-15T00:59:38;5.90;;;3.40;;
41141;SDS011;63666;52.284;20.890;2024-01-15T01:01:24;5.50;;;3.30;;
41141;SDS011;63666;52.284;20.890;2024-01-15T01:03:09;5.60;;;3.30;;
41141;SDS011;63666;52.284;20.890;2024-01-15T01:04:56;5.50;;;3.40;;
41141;SDS011;63666;52.284;20.890;2024-01-15T01:06:43;5.60;;;3.50;;
41141;SDS011;63666;52.284;20.890;2024-01-15T01:08:28;5.50;;;3.30;;
41141;SDS011;63666;52.284;20.890;2024-01-15T01:10:17;5.40;;;3.20;;
41141;SDS011;63666;52.284;20.890;2024-01-15T01:12:01;5.70;;;3.40;;
41141;SDS011;63666;52.284;20.890;2024-01-15T01:13:49;5.90;;;3.50;;
41141;SDS011;63666;52.284;20.890;2024-01-15T01:15:34;5.30;;;3.30;;
41141;SDS011;63666;52.284;20.890;2024-01-15T01:17:19;5.40;;;3.30;;
41141;SDS011;63666;52.284;20.890;2024-01-15T01:19:04;5.90;;;3.60;;
41141;SDS011;63666;52.284;20.890;2024-01-15T01:20:51;5.60;;;3.50;;
41141;SDS011;63666;52.284;20.890;2024-01-15T01:22:36;5.40;;;3.30;;
41141;SDS011;63666;52.284;20.890;2024-01-15T01:24:21;5.70;;;3.50;;
41141;SDS011;63666;52.284;20.890;2024-01-15T01:26:05;6.00;;;3.80;;
41141;SDS011;63666;52.284;20.890;2024-01-15T01:27:51;5.60;;;3.30;;
41141;SDS011;63666;52.284;20.890;2024-01-15T01:29:37;5.40;;;3.50;;
41141;SDS011;63666;52.284;20.890;2024-01-15T01:31:24;5.20;;;3.20;;
41141;SDS011;63666;52.284;20.890;2024-01-15T01:33:10;4.80;;;3.00;;
41141;SDS011;63666;52.284;20.890;2024-01-15T01:34:55;5.80;;;3.20;;
41141;SDS011;63666;52.284;20.890;2024-01-15T01:36:40;5.30;;;3.00;;
41141;SDS011;63666;52.284;20.890;2024-01-15T01:38:25;5.60;;;3.20;;
41141;SDS011;63666;52.284;20.890;2024-01-15T01:40:11;5.50;;;3.20;;
41141;SDS011;63666;52.284;20.890;2024-01-15T01:41:57;5.10;;;3.10;;
41141;SDS011;63666;52.284;20.890;2024-01-15T01:43:43;5.90;;;3.30;;
41141;SDS011;63666;52.284;20.890;2024-01-15T01:45:28;6.00;;;3.20;;
41141;SDS011;63666;52.284;20.890;2024-01-15T01:47:18;5.30;;;3.30;;
41141;SDS011;63666;52.284;20.890;2024-01-15T01:49:11;5.50;;;3.10;;
41141;SDS011;63666;52.284;20.890;2024-01-15T01:50:57;5.40;;;3.30;;
41141;SDS011;63666;52.284;20.890;2024-01-15T01:52:44;5.30;;;3.30;;
41141;SDS011;63666;52.284;20.890;2024-01-15T01:54:34;5.70;;;3.20;;
41141;SDS011;63666;52.284;20.890;2024-01-15T01:56:21;5.30;;;3.30;;
41141;SDS011;63666;52.284;20.890;2024-01-15T01:58:07;5.20;;;3.10;;
41141;SDS011;63666;52.284;20.890;2024-01-15T01:59:53;5.50;;;3.50;;
41141;SDS011;63666;52.284;20.890;2024-01-15T02:01:38;6.10;;;3.40;;
41141;SDS011;63666;52.284;20.890;2024-01-15T02:03:23;5.50;;;3.10;;
41141;SDS011;63666;52.284;20.890;2024-01-15T02:05:10;5.40;;;3.00;;
41141;SDS011;63666;52.284;20.890;2024-01-15T02:06:56;6.10;;;3.40;;
41141;SDS011;63666;52.284;20.890;2024-01-15T02:08:44;5.50;;;3.10;;
41141;SDS011;63666;52.284;20.890;2024-01-15T02:10:29;5.20;;;3.00;;
41141;SDS011;63666;52.284;20.890;2024-01-15T02:12:14;5.30;;;3.10;;
41141;SDS011;63666;52.284;20.890;2024-01-15T02:14:01;5.30;;;3.00;;
41141;SDS011;63666;52.284;20.890;2024-01-15T02:15:48;5.60;;;3.10;;
41141;SDS011;63666;52.284;20.890;2024-01-15T02:17:33;5.40;;;3.20;;
41141;SDS011;63666;52.284;20.890;2024-01-15T02:19:19;5.40;;;3.10;;
41141;SDS011;63666;52.284;20.890;2024-01-15T02:21:06;5.50;;;3.20;;
41141;SDS011;63666;52.284;20.890;2024-01-15T02:22:51;5.60;;;3.20;;
41141;SDS011;63666;52.284;20.890;2024-01-15T02:24:38;5.10;;;2.80;;
41141;SDS011;63666;52.284;20.890;2024-01-15T02:26:24;5.80;;;3.20;;
41141;SDS011;63666;52.284;20.890;2024-01-15T02:28:13;5.50;;;3.20;;
41141;SDS011;63666;52.284;20.890;2024-01-15T02:30:01;5.40;;;3.30;;
41141;SDS011;63666;52.284;20.890;2024-01-15T02:31:46;4.90;;;3.10;;
41141;SDS011;63666;52.284;20.890;2024-01-15T02:33:31;5.40;;;2.90;;
41141;SDS011;63666;52.284;20.890;2024-01-15T02:35:18;5.00;;;2.90;;
41141;SDS011;63666;52.284;20.890;2024-01-15T02:37:05;5.00;;;3.00;;
41141;SDS011;63666;52.284;20.890;2024-01-15T02:38:52;5.30;;;3.10;;
41141;SDS011;63666;52.284;20.890;2024-01-15T02:40:38;5.10;;;3.00;;
41141;SDS011;63666;52.284;20.890;2024-01-15T02:42:23;5.10;;;3.10;;
41141;SDS011;63666;52.284;20.890;2024-01-15T02:44:08;5.40;;;3.10;;
41141;SDS011;63666;52.284;20.890;2024-01-15T02:45:53;4.70;;;3.00;;
41141;SDS011;63666;52.284;20.890;2024-01-15T02:47:39;5.00;;;2.90;;
41141;SDS011;63666;52.284;20.890;2024-01-15T02:49:25;5.50;;;3.10;;
41141;SDS011;63666;52.284;20.890;2024-01-15T02:51:16;5.30;;;3.10;;
41141;SDS011;63666;52.284;20.890;2024-01-15T02:53:00;4.70;;;2.80;;
41141;SDS011;63666;52.284;20.890;2024-01-15T02:54:46;5.40;;;3.10;;
41141;SDS011;63666;52.284;20.890;2024-01-15T02:56:35;4.80;;;3.10;;
41141;SDS011;63666;52.284;20.890;2024-01-15T02:58:22;5.10;;;3.00;;
41141;SDS011;63666;52.284;20.890;2024-01-15T03:00:11;5.50;;;3.20;;
41141;SDS011;63666;52.284;20.890;2024-01-15T03:01:57;4.90;;;3.00;;
41141;SDS011;63666;52.284;20.890;2024-01-15T03:03:43;5.10;;;3.00;;
41141;SDS011;63666;52.284;20.890;2024-01-15T03:05:28;5.60;;;3.10;;
41141;SDS011;63666;52.284;20.890;2024-01-15T03:07:15;5.70;;;2.90;;
41141;SDS011;63666;52.284;20.890;2024-01-15T03:08:59;5.00;;;3.00;;
41141;SDS011;63666;52.284;20.890;2024-01-15T03:10:47;5.40;;;3.10;;
41141;SDS011;63666;52.284;20.890;2024-01-15T03:12:32;5.60;;;3.30;;
41141;SDS011;63666;52.284;20.890;2024-01-15T03:14:17;5.30;;;3.00;;
41141;SDS011;63666;52.284;20.890;2024-01-15T03:16:03;5.30;;;3.10;;
41141;SDS011;63666;52.284;20.890;2024-01-15T03:17:48;4.90;;;3.10;;
41141;SDS011;63666;52.284;20.890;2024-01-15T03:19:35;5.30;;;3.20;;
41141;SDS011;63666;52.284;20.890;2024-01-15T03:21:20;5.70;;;3.00;;
41141;SDS011;63666;52.284;20.890;2024-01-15T03:23:05;5.20;;;2.90;;
41141;SDS011;63666;52.284;20.890;2024-01-15T03:24:52;5.20;;;3.10;;
41141;SDS011;63666;52.284;20.890;2024-01-15T03:26:37;4.80;;;2.90;;
41141;SDS011;63666;52.284;20.890;2024-01-15T03:28:24;4.80;;;2.80;;
41141;SDS011;63666;52.284;20.890;2024-01-15T03:30:11;5.10;;;3.00;;
41141;SDS011;63666;52.284;20.890;2024-01-15T03:31:57;5.20;;;3.20;;
41141;SDS011;63666;52.284;20.890;2024-01-15T03:33:41;4.90;;;3.00;;
41141;SDS011;63666;52.284;20.890;2024-01-15T03:35:30;4.80;;;2.90;;
41141;SDS011;63666;52.284;20.890;2024-01-15T03:37:14;5.30;;;3.10;;
41141;SDS011;63666;52.284;20.890;2024-01-15T03:38:59;5.00;;;3.00;;
41141;SDS011;63666;52.284;20.890;2024-01-15T03:40:46;5.30;;;3.00;;
41141;SDS011;63666;52.284;20.890;2024-01-15T03:42:31;5.20;;;2.90;;
41141;SDS011;63666;52.284;20.890;2024-01-15T03:44:18;5.20;;;2.90;;
41141;SDS011;63666;52.284;20.890;2024-01-15T03:46:04;5.20;;;3.10;;
41141;SDS011;63666;52.284;20.890;2024-01-15T03:47:54;4.90;;;2.90;;
41141;SDS011;63666;52.284;20.890;2024-01-15T03:49:39;5.30;;;2.70;;
41141;SDS011;63666;52.284;20.890;2024-01-15T03:51:24;5.30;;;2.80;;
41141;SDS011;63666;52.284;20.890;2024-01-15T03:53:11;5.30;;;3.00;;
41141;SDS011;63666;52.284;20.890;2024-01-15T03:54:56;5.30;;;2.90;;
41141;SDS011;63666;52.284;20.890;2024-01-15T03:56:43;6.70;;;3.00;;
41141;SDS011;63666;52.284;20.890;2024-01-15T03:58:28;5.30;;;3.00;;
41141;SDS011;63666;52.284;20.890;2024-01-15T04:00:14;5.20;;;3.00;;
41141;SDS011;63666;52.284;20.890;2024-01-15T04:02:00;4.70;;;2.90;;
41141;SDS011;63666;52.284;20.890;2024-01-15T04:03:46;5.90;;;3.10;;
41141;SDS011;63666;52.284;20.890;2024-01-15T04:05:30;5.70;;;3.10;;
41141;SDS011;63666;52.284;20.890;2024-01-15T04:07:15;5.40;;;3.40;;
41141;SDS011;63666;52.284;20.890;2024-01-15T04:09:00;5.30;;;3.00;;
41141;SDS011;63666;52.284;20.890;2024-01-15T04:10:46;5.00;;;2.80;;
41141;SDS011;63666;52.284;20.890;2024-01-15T04:12:33;5.00;;;2.80;;
41141;SDS011;63666;52.284;20.890;2024-01-15T04:14:19;5.20;;;2.90;;
41141;SDS011;63666;52.284;20.890;2024-01-15T04:16:06;4.90;;;2.70;;
41141;SDS011;63666;52.284;20.890;2024-01-15T04:17:51;5.30;;;3.10;;
41141;SDS011;63666;52.284;20.890;2024-01-15T04:19:36;5.20;;;3.10;;
41141;SDS011;63666;52.284;20.890;2024-01-15T04:21:21;5.20;;;2.80;;
41141;SDS011;63666;52.284;20.890;2024-01-15T04:23:06;5.30;;;2.80;;
41141;SDS011;63666;52.284;20.890;2024-01-15T04:24:51;5.10;;;3.10;;
41141;SDS011;63666;52.284;20.890;2024-01-15T04:26:40;5.50;;;2.90;;
41141;SDS011;63666;52.284;20.890;2024-01-15T04:28:25;5.90;;;2.80;;
41141;SDS011;63666;52.284;20.890;2024-01-15T04:30:11;5.70;;;3.00;;
41141;SDS011;63666;52.284;20.890;2024-01-15T04:31:56;5.80;;;3.10;;
41141;SDS011;63666;52.284;20.890;2024-01-15T04:33:41;5.20;;;2.80;;
41141;SDS011;63666;52.284;20.890;2024-01-15T04:35:28;5.10;;;3.00;;
41141;SDS011;63666;52.284;20.890;2024-01-15T04:37:14;5.00;;;2.80;;
41141;SDS011;63666;52.284;20.890;2024-01-15T04:38:59;5.40;;;2.90;;
41141;SDS011;63666;52.284;20.890;2024-01-15T04:40:45;5.30;;;2.90;;
41141;SDS011;63666;52.284;20.890;2024-01-15T04:42:32;5.70;;;2.80;;
41141;SDS011;63666;52.284;20.890;2024-01-15T04:44:16;5.90;;;3.00;;
41141;SDS011;63666;52.284;20.890;2024-01-15T04:46:00;5.40;;;3.10;;
41141;SDS011;63666;52.284;20.890;2024-01-15T04:47:47;4.80;;;2.80;;
41141;SDS011;63666;52.284;20.890;2024-01-15T04:49:33;5.00;;;2.80;;
41141;SDS011;63666;52.284;20.890;2024-01-15T04:51:18;4.70;;;2.80;;
41141;SDS011;63666;52.284;20.890;2024-01-15T04:53:03;4.80;;;2.70;;
41141;SDS011;63666;52.284;20.890;2024-01-15T04:54:52;4.90;;;2.70;;
41141;SDS011;63666;52.284;20.890;2024-01-15T04:56:39;5.10;;;3.10;;
41141;SDS011;63666;52.284;20.890;2024-01-15T04:58:24;5.20;;;2.70;;
41141;SDS011;63666;52.284;20.890;2024-01-15T05:00:11;5.40;;;2.90;;
41141;SDS011;63666;52.284;20.890;2024-01-15T05:01:58;4.50;;;2.50;;
41141;SDS011;63666;52.284;20.890;2024-01-15T05:03:43;4.90;;;2.70;;
41141;SDS011;63666;52.284;20.890;2024-01-15T05:05:28;5.00;;;2.70;;
41141;SDS011;63666;52.284;20.890;2024-01-15T05:07:17;5.10;;;2.70;;
41141;SDS011;63666;52.284;20.890;2024-01-15T05:09:01;4.50;;;2.70;;
41141;SDS011;63666;52.284;20.890;2024-01-15T05:10:49;4.60;;;2.60;;
41141;SDS011;63666;52.284;20.890;2024-01-15T05:12:33;5.20;;;2.70;;
41141;SDS011;63666;52.284;20.890;2024-01-15T05:14:19;4.90;;;2.60;;
41141;SDS011;63666;52.284;20.890;2024-01-15T05:16:06;4.70;;;2.60;;
41141;SDS011;63666;52.284;20.890;2024-01-15T05:17:51;4.80;;;2.60;;
41141;SDS011;63666;52.284;20.890;2024-01-15T05:19:36;4.90;;;2.60;;
41141;SDS011;63666;52.284;20.890;2024-01-15T05:21:21;4.80;;;2.80;;
41141;SDS011;63666;52.284;20.890;2024-01-15T05:23:07;4.50;;;2.60;;
41141;SDS011;63666;52.284;20.890;2024-01-15T05:24:54;4.90;;;2.70;;
41141;SDS011;63666;52.284;20.890;2024-01-15T05:26:38;5.10;;;2.70;;
41141;SDS011;63666;52.284;20.890;2024-01-15T05:28:29;4.50;;;2.70;;
41141;SDS011;63666;52.284;20.890;2024-01-15T05:30:15;4.40;;;2.50;;
41141;SDS011;63666;52.284;20.890;2024-01-15T05:32:00;5.00;;;2.70;;
41141;SDS011;63666;52.284;20.890;2024-01-15T05:33:48;5.20;;;2.60;;
41141;SDS011;63666;52.284;20.890;2024-01-15T05:35:34;4.90;;;2.70;;
41141;SDS011;63666;52.284;20.890;2024-01-15T05:37:19;4.60;;;2.50;;
41141;SDS011;63666;52.284;20.890;2024-01-15T05:39:04;4.70;;;2.60;;
41141;SDS011;63666;52.284;20.890;2024-01-15T05:40:53;5.00;;;2.50;;
41141;SDS011;63666;52.284;20.890;2024-01-15T05:42:38;4.70;;;2.70;;
41141;SDS011;63666;52.284;20.890;2024-01-15T05:44:23;4.60;;;2.70;;
41141;SDS011;63666;52.284;20.890;2024-01-15T05:46:08;4.20;;;2.40;;
41141;SDS011;63666;52.284;20.890;2024-01-15T05:47:53;5.10;;;2.70;;
41141;SDS011;63666;52.284;20.890;2024-01-15T05:49:39;4.50;;;2.60;;
41141;SDS011;63666;52.284;20.890;2024-01-15T05:51:25;4.70;;;2.60;;
41141;SDS011;63666;52.284;20.890;2024-01-15T05:53:10;4.60;;;2.60;;
41141;SDS011;63666;52.284;20.890;2024-01-15T05:54:57;4.20;;;2.30;;
41141;SDS011;63666;52.284;20.890;2024-01-15T05:56:44;4.70;;;2.50;;
41141;SDS011;63666;52.284;20.890;2024-01-15T05:58:31;4.50;;;2.40;;
41141;SDS011;63666;52.284;20.890;2024-01-15T06:00:18;4.70;;;2.50;;
41141;SDS011;63666;52.284;20.890;2024-01-15T06:02:03;4.30;;;2.30;;
41141;SDS011;63666;52.284;20.890;2024-01-15T06:03:50;5.00;;;2.70;;
41141;SDS011;63666;52.284;20.890;2024-01-15T06:05:35;4.50;;;2.50;;
41141;SDS011;63666;52.284;20.890;2024-01-15T06:07:22;4.20;;;2.40;;
41141;SDS011;63666;52.284;20.890;2024-01-15T06:09:09;4.50;;;2.60;;
41141;SDS011;63666;52.284;20.890;2024-01-15T06:10:55;4.90;;;2.80;;
41141;SDS011;63666;52.284;20.890;2024-01-15T06:12:44;4.60;;;2.40;;
41141;SDS011;63666;52.284;20.890;2024-01-15T06:14:29;4.60;;;2.50;;
41141;SDS011;63666;52.284;20.890;2024-01-15T06:16:17;4.40;;;2.40;;
41141;SDS011;63666;52.284;20.890;2024-01-15T06:18:09;4.90;;;2.50;;
41141;SDS011;63666;52.284;20.890;2024-01-15T06:19:54;4.90;;;2.40;;
41141;SDS011;63666;52.284;20.890;2024-01-15T06:21:40;4.60;;;2.50;;
41141;SDS011;63666;52.284;20.890;2024-01-15T06:23:25;4.50;;;2.30;;
41141;SDS011;63666;52.284;20.890;2024-01-15T06:25:14;4.60;;;2.50;;
41141;SDS011;63666;52.284;20.890;2024-01-15T06:26:59;4.70;;;2.40;;
41141;SDS011;63666;52.284;20.890;2024-01-15T06:28:46;4.50;;;2.50;;
41141;SDS011;63666;52.284;20.890;2024-01-15T06:30:35;4.40;;;2.40;;
41141;SDS011;63666;52.284;20.890;2024-01-15T06:32:22;4.80;;;2.50;;
41141;SDS011;63666;52.284;20.890;2024-01-15T06:34:07;4.40;;;2.50;;
41141;SDS011;63666;52.284;20.890;2024-01-15T06:35:55;4.60;;;2.60;;
41141;SDS011;63666;52.284;20.890;2024-01-15T06:37:43;4.70;;;2.60;;
41141;SDS011;63666;52.284;20.890;2024-01-15T06:39:29;4.50;;;2.40;;
41141;SDS011;63666;52.284;20.890;2024-01-15T06:41:14;4.60;;;2.40;;
41141;SDS011;63666;52.284;20.890;2024-01-15T06:42:59;4.50;;;2.60;;
41141;SDS011;63666;52.284;20.890;2024-01-15T06:44:44;4.40;;;2.30;;
41141;SDS011;63666;52.284;20.890;2024-01-15T06:46:31;4.00;;;2.20;;
41141;SDS011;63666;52.284;20.890;2024-01-15T06:48:17;4.40;;;2.60;;
41141;SDS011;63666;52.284;20.890;2024-01-15T06:50:02;5.20;;;2.80;;
41141;SDS011;63666;52.284;20.890;2024-01-15T06:51:49;4.50;;;2.40;;
41141;SDS011;63666;52.284;20.890;2024-01-15T06:53:36;4.30;;;2.50;;
41141;SDS011;63666;52.284;20.890;2024-01-15T06:55:24;4.30;;;2.30;;
41141;SDS011;63666;52.284;20.890;2024-01-15T06:57:11;4.60;;;2.70;;
41141;SDS011;63666;52.284;20.890;2024-01-15T06:58:56;4.50;;;2.50;;
41141;SDS011;63666;52.284;20.890;2024-01-15T07:00:41;4.70;;;2.60;;
41141;SDS011;63666;52.284;20.890;2024-01-15T07:02:31;4.60;;;2.40;;
41141;SDS011;63666;52.284;20.890;2024-01-15T07:04:16;4.60;;;2.30;;
41141;SDS011;63666;52.284;20.890;2024-01-15T07:06:03;4.40;;;2.50;;
41141;SDS011;63666;52.284;20.890;2024-01-15T07:07:48;4.50;;;2.50;;
41141;SDS011;63666;52.284;20.890;2024-01-15T07:09:33;4.30;;;2.40;;
41141;SDS011;63666;52.284;20.890;2024-01-15T07:11:19;4.40;;;2.50;;
41141;SDS011;63666;52.284;20.890;2024-01-15T07:13:07;4.50;;;2.50;;
41141;SDS011;63666;52.284;20.890;2024-01-15T07:14:52;4.90;;;2.50;;
41141;SDS011;63666;52.284;20.890;2024-01-15T07:16:38;4.50;;;2.40;;
41141;SDS011;63666;52.284;20.890;2024-01-15T07:18:29;4.30;;;2.40;;
41141;SDS011;63666;52.284;20.890;2024-01-15T07:20:14;4.30;;;2.40;;
41141;SDS011;63666;52.284;20.890;2024-01-15T07:22:02;4.50;;;2.40;;
41141;SDS011;63666;52.284;20.890;2024-01-15T07:23:48;4.70;;;2.60;;
41141;SDS011;63666;52.284;20.890;2024-01-15T07:25:36;4.70;;;2.60;;
41141;SDS011;63666;52.284;20.890;2024-01-15T07:27:21;4.50;;;2.60;;
41141;SDS011;63666;52.284;20.890;2024-01-15T07:29:05;4.50;;;2.40;;
41141;SDS011;63666;52.284;20.890;2024-01-15T07:30:51;4.60;;;2.40;;
41141;SDS011;63666;52.284;20.890;2024-01-15T07:32:36;4.60;;;2.50;;
41141;SDS011;63666;52.284;20.890;2024-01-15T07:34:22;4.30;;;2.50;;
41141;SDS011;63666;52.284;20.890;2024-01-15T07:36:12;4.40;;;2.50;;
41141;SDS011;63666;52.284;20.890;2024-01-15T07:37:57;4.40;;;2.50;;
41141;SDS011;63666;52.284;20.890;2024-01-15T07:39:43;4.70;;;2.40;;
41141;SDS011;63666;52.284;20.890;2024-01-15T07:41:28;4.10;;;2.30;;
41141;SDS011;63666;52.284;20.890;2024-01-15T07:43:14;4.50;;;2.40;;
41141;SDS011;63666;52.284;20.890;2024-01-15T07:44:59;5.00;;;2.60;;
41141;SDS011;63666;52.284;20.890;2024-01-15T07:46:46;4.40;;;2.40;;
41141;SDS011;63666;52.284;20.890;2024-01-15T07:48:33;4.70;;;2.50;;
41141;SDS011;63666;52.284;20.890;2024-01-15T07:50:20;5.00;;;2.90;;
41141;SDS011;63666;52.284;20.890;2024-01-15T07:52:08;4.70;;;2.80;;
41141;SDS011;63666;52.284;20.890;2024-01-15T07:53:56;5.20;;;2.50;;
41141;SDS011;63666;52.284;20.890;2024-01-15T07:55:44;4.70;;;2.70;;
41141;SDS011;63666;52.284;20.890;2024-01-15T07:57:31;5.00;;;2.80;;
41141;SDS011;63666;52.284;20.890;2024-01-15T07:59:20;4.80;;;2.40;;
41141;SDS011;63666;52.284;20.890;2024-01-15T08:01:06;5.00;;;2.70;;
41141;SDS011;63666;52.284;20.890;2024-01-15T08:02:51;5.00;;;2.80;;
41141;SDS011;63666;52.284;20.890;2024-01-15T08:04:37;4.70;;;2.60;;
41141;SDS011;63666;52.284;20.890;2024-01-15T08:06:23;5.20;;;2.80;;
41141;SDS011;63666;52.284;20.890;2024-01-15T08:08:08;4.60;;;2.50;;
41141;SDS011;63666;52.284;20.890;2024-01-15T08:09:55;5.50;;;2.90;;
41141;SDS011;63666;52.284;20.890;2024-01-15T08:11:43;5.30;;;2.70;;
41141;SDS011;63666;52.284;20.890;2024-01-15T08:13:29;5.10;;;2.60;;
41141;SDS011;63666;52.284;20.890;2024-01-15T08:15:16;5.10;;;2.80;;
41141;SDS011;63666;52.284;20.890;2024-01-15T08:17:00;5.60;;;2.80;;
41141;SDS011;63666;52.284;20.890;2024-01-15T08:18:45;4.90;;;2.60;;
41141;SDS011;63666;52.284;20.890;2024-01-15T08:20:30;4.80;;;2.80;;
41141;SDS011;63666;52.284;20.890;2024-01-15T08:22:17;5.60;;;2.90;;
41141;SDS011;63666;52.284;20.890;2024-01-15T08:24:03;4.90;;;2.90;;
41141;SDS011;63666;52.284;20.890;2024-01-15T08:25:49;8.10;;;3.40;;
41141;SDS011;63666;52.284;20.890;2024-01-15T08:27:34;7.30;;;3.60;;
41141;SDS011;63666;52.284;20.890;2024-01-15T08:29:22;7.90;;;3.40;;
41141;SDS011;63666;52.284;20.890;2024-01-15T08:31:08;6.60;;;3.40;;
41141;SDS011;63666;52.284;20.890;2024-01-15T08:32:53;6.30;;;3.20;;
41141;SDS011;63666;52.284;20.890;2024-01-15T08:34:50;7.00;;;3.20;;
41141;SDS011;63666;52.284;20.890;2024-01-15T08:36:37;6.30;;;3.20;;
41141;SDS011;63666;52.284;20.890;2024-01-15T08:38:23;7.20;;;3.60;;
41141;SDS011;63666;52.284;20.890;2024-01-15T08:40:10;7.20;;;3.30;;
41141;SDS011;63666;52.284;20.890;2024-01-15T08:41:56;6.10;;;3.30;;
41141;SDS011;63666;52.284;20.890;2024-01-15T08:43:40;6.80;;;3.50;;
41141;SDS011;63666;52.284;20.890;2024-01-15T08:45:25;6.40;;;3.80;;
41141;SDS011;63666;52.284;20.890;2024-01-15T08:47:14;6.50;;;3.30;;
41141;SDS011;63666;52.284;20.890;2024-01-15T08:48:59;6.30;;;3.40;;
41141;SDS011;63666;52.284;20.890;2024-01-15T08:50:45;5.60;;;3.20;;
41141;SDS011;63666;52.284;20.890;2024-01-15T08:52:32;8.10;;;3.40;;
41141;SDS011;63666;52.284;20.890;2024-01-15T08:54:16;6.40;;;3.10;;
41141;SDS011;63666;52.284;20.890;2024-01-15T08:56:01;6.40;;;3.20;;
41141;SDS011;63666;52.284;20.890;2024-01-15T08:57:46;6.80;;;3.40;;
41141;SDS011;63666;52.284;20.890;2024-01-15T08:59:30;6.90;;;3.60;;
41141;SDS011;63666;52.284;20.890;2024-01-15T09:01:14;5.60;;;2.90;;
41141;SDS011;63666;52.284;20.890;2024-01-15T09:02:59;7.00;;;3.40;;
41141;SDS011;63666;52.284;20.890;2024-01-15T09:04:44;6.70;;;3.10;;
41141;SDS011;63666;52.284;20.890;2024-01-15T09:06:28;6.80;;;3.00;;
41141;SDS011;63666;52.284;20.890;2024-01-15T09:08:12;7.00;;;3.20;;
41141;SDS011;63666;52.284;20.890;2024-01-15T09:09:57;6.50;;;3.10;;
41141;SDS011;63666;52.284;20.890;2024-01-15T09:11:42;8.20;;;3.40;;
41141;SDS011;63666;52.284;20.890;2024-01-15T09:13:27;6.60;;;3.00;;
41141;SDS011;63666;52.284;20.890;2024-01-15T09:15:12;6.40;;;3.10;;
41141;SDS011;63666;52.284;20.890;2024-01-15T09:16:57;7.20;;;3.10;;
41141;SDS011;63666;52.284;20.890;2024-01-15T09:18:41;5.90;;;2.60;;
41141;SDS011;63666;52.284;20.890;2024-01-15T09:20:27;6.20;;;3.00;;
41141;SDS011;63666;52.284;20.890;2024-01-15T09:22:14;7.40;;;3.00;;
41141;SDS011;63666;52.284;20.890;2024-01-15T09:24:06;5.80;;;2.70;;
41141;SDS011;63666;52.284;20.890;2024-01-15T09:25:51;6.20;;;2.80;;
41141;SDS011;63666;52.284;20.890;2024-01-15T09:27:35;5.40;;;2.80;;
41141;SDS011;63666;52.284;20.890;2024-01-15T09:29:20;6.20;;;3.00;;
41141;SDS011;63666;52.284;20.890;2024-01-15T09:31:05;5.10;;;2.60;;
41141;SDS011;63666;52.284;20.890;2024-01-15T09:32:50;5.90;;;2.80;;
41141;SDS011;63666;52.284;20.890;2024-01-15T09:34:34;6.50;;;3.30;;
41141;SDS011;63666;52.284;20.890;2024-01-15T09:36:19;5.90;;;2.80;;
41141;SDS011;63666;52.284;20.890;2024-01-15T09:38:05;10.50;;;2.90;;
41141;SDS011;63666;52.284;20.890;2024-01-15T09:39:50;5.50;;;2.90;;
41141;SDS011;63666;52.284;20.890;2024-01-15T09:41:35;5.30;;;2.60;;
41141;SDS011;63666;52.284;20.890;2024-01-15T09:43:21;6.80;;;3.20;;
41141;SDS011;63666;52.284;20.890;2024-01-15T09:45:07;6.30;;;2.90;;
41141;SDS011;63666;52.284;20.890;2024-01-15T09:46:54;4.80;;;2.50;;
41141;SDS011;63666;52.284;20.890;2024-01-15T09:48:40;5.70;;;3.20;;
41141;SDS011;63666;52.284;20.890;2024-01-15T09:50:25;6.00;;;2.90;;
41141;SDS011;63666;52.284;20.890;2024-01-15T09:52:12;6.20;;;3.00;;
41141;SDS011;63666;52.284;20.890;2024-01-15T09:53:59;5.80;;;2.90;;
41141;SDS011;63666;52.284;20.890;2024-01-15T09:55:45;5.60;;;2.90;;
41141;SDS011;63666;52.284;20.890;2024-01-15T09:57:30;5.60;;;3.10;;
41141;SDS011;63666;52.284;20.890;2024-01-15T09:59:17;5.30;;;2.90;;
41141;SDS011;63666;52.284;20.890;2024-01-15T10:01:03;5.80;;;3.00;;
41141;SDS011;63666;52.284;20.890;2024-01-15T10:02:50;6.20;;;2.90;;
41141;SDS011;63666;52.284;20.890;2024-01-15T10:04:36;5.10;;;2.70;;
41141;SDS011;63666;52.284;20.890;2024-01-15T10:06:22;5.00;;;2.70;;
41141;SDS011;63666;52.284;20.890;2024-01-15T10:08:09;4.90;;;2.70;;
41141;SDS011;63666;52.284;20.890;2024-01-15T10:09:55;5.80;;;2.70;;
41141;SDS011;63666;52.284;20.890;2024-01-15T10:11:40;6.40;;;3.20;;
41141;SDS011;63666;52.284;20.890;2024-01-15T10:13:27;5.50;;;2.80;;
41141;SDS011;63666;52.284;20.890;2024-01-15T10:15:13;5.30;;;2.80;;
41141;SDS011;63666;52.284;20.890;2024-01-15T10:17:00;6.20;;;2.80;;
41141;SDS011;63666;52.284;20.890;2024-01-15T10:18:46;5.40;;;2.60;;
41141;SDS011;63666;52.284;20.890;2024-01-15T10:20:33;5.10;;;2.90;;
41141;SDS011;63666;52.284;20.890;2024-01-15T10:22:18;6.20;;;2.90;;
41141;SDS011;63666;52.284;20.890;2024-01-15T10:24:06;5.60;;;3.00;;
41141;SDS011;63666;52.284;20.890;2024-01-15T10:25:50;4.90;;;2.30;;
41141;SDS011;63666;52.284;20.890;2024-01-15T10:27:35;5.00;;;2.50;;
41141;SDS011;63666;52.284;20.890;2024-01-15T10:29:21;5.60;;;2.70;;